sensor_id;sensor_type;location;lat;lon;timestamp;P1;durP1;ratioP1;P2;durP2;ratioP2
51382;SDS011;37475;43.358;1.248;2022-09-09T00:04:39;5.50;;;2.05;;
51382;SDS011;37475;43.358;1.248;2022-09-09T00:07:18;6.25;;;1.90;;
51382;SDS011;37475;43.358;1.248;2022-09-09T00:13:05;4.97;;;1.83;;
51382;SDS011;37475;43.358;1.248;2022-09-09T00:21:16;9.73;;;2.10;;
51382;SDS011;37475;43.358;1.248;2022-09-09T00:23:44;3.83;;;1.55;;
51382;SDS011;37475;43.358;1.248;2022-09-09T00:29:05;6.65;;;1.90;;
51382;SDS011;37475;43.358;1.248;2022-09-09T00:31:47;9.75;;;1.77;;
51382;SDS011;37475;43.358;1.248;2022-09-09T00:36:42;5.22;;;1.88;;
51382;SDS011;37475;43.358;1.248;2022-09-09T00:42:16;6.20;;;1.67;;
51382;SDS011;37475;43.358;1.248;2022-09-09T00:44:59;5.00;;;1.75;;
51382;SDS011;37475;43.358;1.248;2022-09-09T00:56:20;7.68;;;2.05;;
51382;SDS011;37475;43.358;1.248;2022-09-09T01:04:18;5.70;;;1.65;;
51382;SDS011;37475;43.358;1.248;2022-09-09T01:06:59;5.53;;;1.60;;
51382;SDS011;37475;43.358;1.248;2022-09-09T01:10:03;3.42;;;1.77;;
51382;SDS011;37475;43.358;1.248;2022-09-09T01:12:41;5.95;;;1.73;;
51382;SDS011;37475;43.358;1.248;2022-09-09T01:17:52;5.93;;;1.90;;
51382;SDS011;37475;43.358;1.248;2022-09-09T01:20:44;4.28;;;1.63;;
51382;SDS011;37475;43.358;1.248;2022-09-09T01:27:05;6.13;;;1.80;;
51382;SDS011;37475;43.358;1.248;2022-09-09T01:29:32;6.05;;;1.75;;
51382;SDS011;37475;43.358;1.248;2022-09-09T01:32:02;4.75;;;1.50;;
51382;SDS011;37475;43.358;1.248;2022-09-09T01:35:03;5.50;;;1.50;;
51382;SDS011;37475;43.358;1.248;2022-09-09T01:37:32;6.13;;;1.75;;
51382;SDS011;37475;43.358;1.248;2022-09-09T01:39:57;4.22;;;1.70;;
51382;SDS011;37475;43.358;1.248;2022-09-09T01:42:23;7.70;;;1.65;;
51382;SDS011;37475;43.358;1.248;2022-09-09T01:44:50;4.30;;;1.85;;
51382;SDS011;37475;43.358;1.248;2022-09-09T01:47:15;5.28;;;1.60;;
51382;SDS011;37475;43.358;1.248;2022-09-09T01:49:42;5.15;;;1.83;;
51382;SDS011;37475;43.358;1.248;2022-09-09T01:52:08;6.38;;;1.90;;
51382;SDS011;37475;43.358;1.248;2022-09-09T01:54:34;4.82;;;1.77;;
51382;SDS011;37475;43.358;1.248;2022-09-09T02:07:47;6.20;;;1.80;;
51382;SDS011;37475;43.358;1.248;2022-09-09T02:10:16;5.88;;;1.75;;
51382;SDS011;37475;43.358;1.248;2022-09-09T02:12:48;4.85;;;1.35;;
51382;SDS011;37475;43.358;1.248;2022-09-09T02:15:25;5.20;;;1.67;;
51382;SDS011;37475;43.358;1.248;2022-09-09T02:17:53;5.60;;;1.38;;
51382;SDS011;37475;43.358;1.248;2022-09-09T02:20:23;6.18;;;1.52;;
51382;SDS011;37475;43.358;1.248;2022-09-09T02:22:52;6.50;;;1.88;;
51382;SDS011;37475;43.358;1.248;2022-09-09T02:25:20;5.95;;;1.58;;
51382;SDS011;37475;43.358;1.248;2022-09-09T02:27:50;5.80;;;1.60;;
51382;SDS011;37475;43.358;1.248;2022-09-09T02:30:16;6.25;;;1.50;;
51382;SDS011;37475;43.358;1.248;2022-09-09T02:32:44;4.65;;;1.55;;
51382;SDS011;37475;43.358;1.248;2022-09-09T02:35:15;5.07;;;1.60;;
51382;SDS011;37475;43.358;1.248;2022-09-09T02:37:49;4.60;;;1.75;;
51382;SDS011;37475;43.358;1.248;2022-09-09T02:40:18;6.50;;;1.80;;
51382;SDS011;37475;43.358;1.248;2022-09-09T02:42:46;5.72;;;1.98;;
51382;SDS011;37475;43.358;1.248;2022-09-09T02:45:16;7.60;;;2.15;;
51382;SDS011;37475;43.358;1.248;2022-09-09T02:48:00;5.85;;;1.80;;
51382;SDS011;37475;43.358;1.248;2022-09-09T02:53:56;5.30;;;1.80;;
51382;SDS011;37475;43.358;1.248;2022-09-09T02:56:51;5.82;;;1.80;;
51382;SDS011;37475;43.358;1.248;2022-09-09T02:59:19;6.50;;;1.73;;
51382;SDS011;37475;43.358;1.248;2022-09-09T03:01:46;5.90;;;1.75;;
51382;SDS011;37475;43.358;1.248;2022-09-09T03:04:12;5.82;;;1.60;;
51382;SDS011;37475;43.358;1.248;2022-09-09T03:06:38;6.63;;;1.80;;
51382;SDS011;37475;43.358;1.248;2022-09-09T03:09:04;5.68;;;1.60;;
51382;SDS011;37475;43.358;1.248;2022-09-09T03:11:30;5.18;;;1.73;;
51382;SDS011;37475;43.358;1.248;2022-09-09T03:13:57;5.80;;;1.77;;
51382;SDS011;37475;43.358;1.248;2022-09-09T03:16:23;5.07;;;1.75;;
51382;SDS011;37475;43.358;1.248;2022-09-09T03:18:49;9.77;;;1.95;;
51382;SDS011;37475;43.358;1.248;2022-09-09T03:21:15;5.35;;;1.80;;
51382;SDS011;37475;43.358;1.248;2022-09-09T03:23:41;6.97;;;1.88;;
51382;SDS011;37475;43.358;1.248;2022-09-09T03:26:07;5.15;;;1.70;;
51382;SDS011;37475;43.358;1.248;2022-09-09T03:28:33;4.90;;;1.60;;
51382;SDS011;37475;43.358;1.248;2022-09-09T03:31:00;4.40;;;1.67;;
51382;SDS011;37475;43.358;1.248;2022-09-09T03:33:30;4.80;;;1.90;;
51382;SDS011;37475;43.358;1.248;2022-09-09T03:35:56;6.13;;;2.05;;
51382;SDS011;37475;43.358;1.248;2022-09-09T03:38:23;6.68;;;1.73;;
51382;SDS011;37475;43.358;1.248;2022-09-09T03:40:53;5.05;;;1.60;;
51382;SDS011;37475;43.358;1.248;2022-09-09T03:43:22;5.70;;;1.92;;
51382;SDS011;37475;43.358;1.248;2022-09-09T03:45:49;6.50;;;1.70;;
51382;SDS011;37475;43.358;1.248;2022-09-09T03:48:15;6.03;;;1.80;;
51382;SDS011;37475;43.358;1.248;2022-09-09T03:50:50;7.43;;;2.10;;
51382;SDS011;37475;43.358;1.248;2022-09-09T03:53:18;4.47;;;1.75;;
51382;SDS011;37475;43.358;1.248;2022-09-09T03:55:46;4.90;;;1.88;;
51382;SDS011;37475;43.358;1.248;2022-09-09T03:58:15;7.20;;;1.92;;
51382;SDS011;37475;43.358;1.248;2022-09-09T04:00:43;7.82;;;1.80;;
51382;SDS011;37475;43.358;1.248;2022-09-09T04:03:21;7.05;;;1.85;;
51382;SDS011;37475;43.358;1.248;2022-09-09T04:05:49;5.60;;;1.67;;
51382;SDS011;37475;43.358;1.248;2022-09-09T04:08:19;4.35;;;1.90;;
51382;SDS011;37475;43.358;1.248;2022-09-09T04:10:49;7.45;;;1.88;;
51382;SDS011;37475;43.358;1.248;2022-09-09T04:13:15;7.88;;;1.88;;
51382;SDS011;37475;43.358;1.248;2022-09-09T04:15:43;6.53;;;2.05;;
51382;SDS011;37475;43.358;1.248;2022-09-09T04:18:15;5.25;;;1.85;;
51382;SDS011;37475;43.358;1.248;2022-09-09T04:20:41;6.78;;;1.92;;
51382;SDS011;37475;43.358;1.248;2022-09-09T04:23:08;7.60;;;2.10;;
51382;SDS011;37475;43.358;1.248;2022-09-09T04:25:34;8.63;;;2.25;;
51382;SDS011;37475;43.358;1.248;2022-09-09T04:28:00;3.95;;;2.00;;
51382;SDS011;37475;43.358;1.248;2022-09-09T04:30:27;6.15;;;1.90;;
51382;SDS011;37475;43.358;1.248;2022-09-09T04:32:53;5.50;;;2.28;;
51382;SDS011;37475;43.358;1.248;2022-09-09T04:35:19;5.45;;;2.00;;
51382;SDS011;37475;43.358;1.248;2022-09-09T04:37:45;7.20;;;2.05;;
51382;SDS011;37475;43.358;1.248;2022-09-09T04:40:11;9.07;;;2.30;;
51382;SDS011;37475;43.358;1.248;2022-09-09T04:42:37;5.72;;;1.73;;
51382;SDS011;37475;43.358;1.248;2022-09-09T04:45:04;5.38;;;2.10;;
51382;SDS011;37475;43.358;1.248;2022-09-09T04:47:36;6.38;;;2.10;;
51382;SDS011;37475;43.358;1.248;2022-09-09T04:50:02;7.85;;;2.15;;
51382;SDS011;37475;43.358;1.248;2022-09-09T04:52:28;7.20;;;2.00;;
51382;SDS011;37475;43.358;1.248;2022-09-09T04:54:54;6.80;;;2.22;;
51382;SDS011;37475;43.358;1.248;2022-09-09T04:57:20;6.10;;;2.20;;
51382;SDS011;37475;43.358;1.248;2022-09-09T04:59:45;5.70;;;2.28;;
51382;SDS011;37475;43.358;1.248;2022-09-09T05:02:11;10.07;;;1.98;;
51382;SDS011;37475;43.358;1.248;2022-09-09T05:04:37;10.77;;;2.08;;
51382;SDS011;37475;43.358;1.248;2022-09-09T05:07:03;5.78;;;1.85;;
51382;SDS011;37475;43.358;1.248;2022-09-09T05:09:29;5.03;;;1.85;;
51382;SDS011;37475;43.358;1.248;2022-09-09T05:11:55;9.00;;;2.05;;
51382;SDS011;37475;43.358;1.248;2022-09-09T05:14:21;9.77;;;1.98;;
51382;SDS011;37475;43.358;1.248;2022-09-09T05:16:47;11.25;;;2.17;;
51382;SDS011;37475;43.358;1.248;2022-09-09T05:19:14;6.75;;;2.00;;
51382;SDS011;37475;43.358;1.248;2022-09-09T05:21:44;8.15;;;2.42;;
51382;SDS011;37475;43.358;1.248;2022-09-09T05:24:10;8.60;;;2.33;;
51382;SDS011;37475;43.358;1.248;2022-09-09T05:26:36;8.20;;;3.05;;
51382;SDS011;37475;43.358;1.248;2022-09-09T05:29:02;6.35;;;2.78;;
51382;SDS011;37475;43.358;1.248;2022-09-09T05:31:29;8.80;;;2.70;;
51382;SDS011;37475;43.358;1.248;2022-09-09T05:33:55;10.52;;;2.80;;
51382;SDS011;37475;43.358;1.248;2022-09-09T05:36:21;7.97;;;2.70;;
51382;SDS011;37475;43.358;1.248;2022-09-09T05:38:48;7.25;;;3.20;;
51382;SDS011;37475;43.358;1.248;2022-09-09T05:41:15;7.88;;;2.97;;
51382;SDS011;37475;43.358;1.248;2022-09-09T05:43:42;8.30;;;2.80;;
51382;SDS011;37475;43.358;1.248;2022-09-09T05:46:16;12.25;;;3.05;;
51382;SDS011;37475;43.358;1.248;2022-09-09T05:48:45;11.10;;;3.05;;
51382;SDS011;37475;43.358;1.248;2022-09-09T05:51:16;8.38;;;2.83;;
51382;SDS011;37475;43.358;1.248;2022-09-09T05:53:49;9.73;;;2.90;;
51382;SDS011;37475;43.358;1.248;2022-09-09T05:58:53;9.50;;;2.78;;
51382;SDS011;37475;43.358;1.248;2022-09-09T06:01:24;9.27;;;2.85;;
51382;SDS011;37475;43.358;1.248;2022-09-09T06:03:56;10.38;;;3.10;;
51382;SDS011;37475;43.358;1.248;2022-09-09T06:06:23;9.90;;;3.10;;
51382;SDS011;37475;43.358;1.248;2022-09-09T06:08:53;8.30;;;3.30;;
51382;SDS011;37475;43.358;1.248;2022-09-09T06:11:24;8.43;;;3.20;;
51382;SDS011;37475;43.358;1.248;2022-09-09T06:13:52;8.07;;;3.10;;
51382;SDS011;37475;43.358;1.248;2022-09-09T06:16:20;9.70;;;2.75;;
51382;SDS011;37475;43.358;1.248;2022-09-09T06:18:48;6.70;;;3.13;;
51382;SDS011;37475;43.358;1.248;2022-09-09T06:21:16;8.63;;;2.88;;
51382;SDS011;37475;43.358;1.248;2022-09-09T06:23:45;9.73;;;2.72;;
51382;SDS011;37475;43.358;1.248;2022-09-09T06:28:42;10.13;;;2.00;;
51382;SDS011;37475;43.358;1.248;2022-09-09T06:31:09;4.50;;;2.15;;
51382;SDS011;37475;43.358;1.248;2022-09-09T06:33:38;6.82;;;2.20;;
51382;SDS011;37475;43.358;1.248;2022-09-09T06:39:02;9.90;;;2.80;;
51382;SDS011;37475;43.358;1.248;2022-09-09T06:41:29;6.95;;;2.30;;
51382;SDS011;37475;43.358;1.248;2022-09-09T06:43:56;7.03;;;2.53;;
51382;SDS011;37475;43.358;1.248;2022-09-09T06:46:26;8.07;;;2.03;;
51382;SDS011;37475;43.358;1.248;2022-09-09T06:51:24;5.10;;;2.10;;
51382;SDS011;37475;43.358;1.248;2022-09-09T06:53:54;8.98;;;2.47;;
51382;SDS011;37475;43.358;1.248;2022-09-09T06:56:23;6.68;;;2.53;;
51382;SDS011;37475;43.358;1.248;2022-09-09T06:58:58;7.20;;;2.30;;
51382;SDS011;37475;43.358;1.248;2022-09-09T07:01:30;6.68;;;2.10;;
51382;SDS011;37475;43.358;1.248;2022-09-09T07:03:59;7.10;;;2.50;;
51382;SDS011;37475;43.358;1.248;2022-09-09T07:06:27;6.68;;;2.30;;
51382;SDS011;37475;43.358;1.248;2022-09-09T07:08:58;8.10;;;2.50;;
51382;SDS011;37475;43.358;1.248;2022-09-09T07:11:37;6.03;;;2.00;;
51382;SDS011;37475;43.358;1.248;2022-09-09T07:14:09;7.22;;;2.00;;
51382;SDS011;37475;43.358;1.248;2022-09-09T07:16:39;8.10;;;2.08;;
51382;SDS011;37475;43.358;1.248;2022-09-09T07:19:09;4.82;;;2.10;;
51382;SDS011;37475;43.358;1.248;2022-09-09T07:21:36;6.55;;;1.80;;
51382;SDS011;37475;43.358;1.248;2022-09-09T07:24:02;4.88;;;1.80;;
51382;SDS011;37475;43.358;1.248;2022-09-09T07:26:32;6.68;;;1.70;;
51382;SDS011;37475;43.358;1.248;2022-09-09T07:28:58;5.85;;;1.80;;
51382;SDS011;37475;43.358;1.248;2022-09-09T07:31:25;7.38;;;1.90;;
51382;SDS011;37475;43.358;1.248;2022-09-09T07:33:55;6.95;;;2.10;;
51382;SDS011;37475;43.358;1.248;2022-09-09T07:36:26;5.72;;;2.00;;
51382;SDS011;37475;43.358;1.248;2022-09-09T07:39:02;8.77;;;2.08;;
51382;SDS011;37475;43.358;1.248;2022-09-09T07:44:06;7.47;;;2.00;;
51382;SDS011;37475;43.358;1.248;2022-09-09T07:46:36;7.68;;;2.35;;
51382;SDS011;37475;43.358;1.248;2022-09-09T07:49:04;4.90;;;1.90;;
51382;SDS011;37475;43.358;1.248;2022-09-09T07:51:34;7.15;;;2.30;;
51382;SDS011;37475;43.358;1.248;2022-09-09T07:54:04;5.93;;;2.22;;
51382;SDS011;37475;43.358;1.248;2022-09-09T07:56:34;4.65;;;1.75;;
51382;SDS011;37475;43.358;1.248;2022-09-09T07:59:02;4.30;;;1.70;;
51382;SDS011;37475;43.358;1.248;2022-09-09T08:01:35;7.18;;;1.90;;
51382;SDS011;37475;43.358;1.248;2022-09-09T08:04:08;6.57;;;2.20;;
51382;SDS011;37475;43.358;1.248;2022-09-09T08:06:41;6.25;;;1.75;;
51382;SDS011;37475;43.358;1.248;2022-09-09T08:09:18;8.00;;;1.95;;
51382;SDS011;37475;43.358;1.248;2022-09-09T08:11:44;7.20;;;2.10;;
51382;SDS011;37475;43.358;1.248;2022-09-09T08:14:11;10.40;;;2.20;;
51382;SDS011;37475;43.358;1.248;2022-09-09T08:16:41;6.40;;;1.88;;
51382;SDS011;37475;43.358;1.248;2022-09-09T08:19:10;7.70;;;2.25;;
51382;SDS011;37475;43.358;1.248;2022-09-09T08:21:37;8.75;;;2.20;;
51382;SDS011;37475;43.358;1.248;2022-09-09T08:24:05;9.38;;;2.10;;
51382;SDS011;37475;43.358;1.248;2022-09-09T08:26:40;7.68;;;1.80;;
51382;SDS011;37475;43.358;1.248;2022-09-09T08:29:08;11.50;;;2.38;;
51382;SDS011;37475;43.358;1.248;2022-09-09T08:31:37;11.25;;;2.30;;
51382;SDS011;37475;43.358;1.248;2022-09-09T08:34:09;7.60;;;2.00;;
51382;SDS011;37475;43.358;1.248;2022-09-09T08:36:39;7.28;;;2.22;;
51382;SDS011;37475;43.358;1.248;2022-09-09T08:39:09;6.53;;;1.90;;
51382;SDS011;37475;43.358;1.248;2022-09-09T08:50:35;7.65;;;2.10;;
51382;SDS011;37475;43.358;1.248;2022-09-09T08:53:16;5.32;;;1.90;;
51382;SDS011;37475;43.358;1.248;2022-09-09T08:55:50;7.40;;;2.15;;
51382;SDS011;37475;43.358;1.248;2022-09-09T08:58:29;8.90;;;1.50;;
51382;SDS011;37475;43.358;1.248;2022-09-09T09:13:18;8.35;;;1.80;;
51382;SDS011;37475;43.358;1.248;2022-09-09T09:15:54;3.83;;;1.48;;
51382;SDS011;37475;43.358;1.248;2022-09-09T09:18:27;6.50;;;2.10;;
51382;SDS011;37475;43.358;1.248;2022-09-09T09:21:03;3.83;;;1.80;;
51382;SDS011;37475;43.358;1.248;2022-09-09T09:26:12;6.75;;;2.13;;
51382;SDS011;37475;43.358;1.248;2022-09-09T09:28:38;5.20;;;1.58;;
51382;SDS011;37475;43.358;1.248;2022-09-09T09:36:06;4.07;;;2.00;;
51382;SDS011;37475;43.358;1.248;2022-09-09T09:38:33;5.95;;;1.73;;
51382;SDS011;37475;43.358;1.248;2022-09-09T09:41:01;9.65;;;1.98;;
51382;SDS011;37475;43.358;1.248;2022-09-09T09:43:32;3.67;;;1.25;;
51382;SDS011;37475;43.358;1.248;2022-09-09T09:46:00;4.63;;;1.20;;
51382;SDS011;37475;43.358;1.248;2022-09-09T09:48:29;4.13;;;1.23;;
51382;SDS011;37475;43.358;1.248;2022-09-09T09:51:14;2.13;;;0.90;;
51382;SDS011;37475;43.358;1.248;2022-09-09T09:53:43;2.85;;;1.27;;
51382;SDS011;37475;43.358;1.248;2022-09-09T09:56:11;3.45;;;1.20;;
51382;SDS011;37475;43.358;1.248;2022-09-09T10:06:45;3.35;;;1.17;;
51382;SDS011;37475;43.358;1.248;2022-09-09T10:17:27;3.75;;;1.40;;
51382;SDS011;37475;43.358;1.248;2022-09-09T10:20:10;4.25;;;1.20;;
51382;SDS011;37475;43.358;1.248;2022-09-09T10:22:50;4.22;;;1.10;;
51382;SDS011;37475;43.358;1.248;2022-09-09T10:25:38;2.75;;;0.80;;
51382;SDS011;37475;43.358;1.248;2022-09-09T10:32:09;1.58;;;0.70;;
51382;SDS011;37475;43.358;1.248;2022-09-09T10:37:41;1.70;;;0.90;;
51382;SDS011;37475;43.358;1.248;2022-09-09T10:46:40;4.80;;;1.52;;
51382;SDS011;37475;43.358;1.248;2022-09-09T10:55:06;3.92;;;1.38;;
51382;SDS011;37475;43.358;1.248;2022-09-09T10:57:43;3.80;;;1.52;;
51382;SDS011;37475;43.358;1.248;2022-09-09T11:00:20;5.97;;;2.10;;
51382;SDS011;37475;43.358;1.248;2022-09-09T11:02:51;4.60;;;1.58;;
51382;SDS011;37475;43.358;1.248;2022-09-09T11:05:27;7.25;;;1.63;;
51382;SDS011;37475;43.358;1.248;2022-09-09T11:21:45;6.00;;;1.80;;
51382;SDS011;37475;43.358;1.248;2022-09-09T11:24:34;5.60;;;1.77;;
51382;SDS011;37475;43.358;1.248;2022-09-09T11:38:56;5.25;;;1.65;;
51382;SDS011;37475;43.358;1.248;2022-09-09T11:41:17;7.95;;;1.60;;
51382;SDS011;37475;43.358;1.248;2022-09-09T11:43:49;4.43;;;1.50;;
51382;SDS011;37475;43.358;1.248;2022-09-09T11:46:18;3.40;;;1.30;;
51382;SDS011;37475;43.358;1.248;2022-09-09T11:48:58;4.55;;;1.52;;
51382;SDS011;37475;43.358;1.248;2022-09-09T11:51:30;5.95;;;1.55;;
51382;SDS011;37475;43.358;1.248;2022-09-09T12:06:48;27.65;;;2.45;;
51382;SDS011;37475;43.358;1.248;2022-09-09T12:09:40;8.00;;;1.30;;
51382;SDS011;37475;43.358;1.248;2022-09-09T12:17:30;7.45;;;1.60;;
51382;SDS011;37475;43.358;1.248;2022-09-09T12:20:02;5.10;;;1.45;;
51382;SDS011;37475;43.358;1.248;2022-09-09T12:28:04;2.45;;;1.00;;
51382;SDS011;37475;43.358;1.248;2022-09-09T12:30:44;4.97;;;1.20;;
51382;SDS011;37475;43.358;1.248;2022-09-09T12:33:33;7.90;;;2.90;;
51382;SDS011;37475;43.358;1.248;2022-09-09T12:36:01;7.05;;;4.50;;
51382;SDS011;37475;43.358;1.248;2022-09-09T12:38:34;2.90;;;1.00;;
51382;SDS011;37475;43.358;1.248;2022-09-09T12:41:04;4.40;;;0.98;;
51382;SDS011;37475;43.358;1.248;2022-09-09T12:43:31;10.18;;;1.35;;
51382;SDS011;37475;43.358;1.248;2022-09-09T12:45:58;4.80;;;1.20;;
51382;SDS011;37475;43.358;1.248;2022-09-09T12:48:35;4.45;;;1.10;;
51382;SDS011;37475;43.358;1.248;2022-09-09T12:51:14;5.00;;;1.00;;
51382;SDS011;37475;43.358;1.248;2022-09-09T12:53:46;5.82;;;1.10;;
51382;SDS011;37475;43.358;1.248;2022-09-09T12:56:19;6.90;;;1.10;;
51382;SDS011;37475;43.358;1.248;2022-09-09T12:58:48;3.33;;;0.95;;
51382;SDS011;37475;43.358;1.248;2022-09-09T13:01:35;3.60;;;1.38;;
51382;SDS011;37475;43.358;1.248;2022-09-09T13:04:01;6.38;;;1.30;;
51382;SDS011;37475;43.358;1.248;2022-09-09T13:06:28;6.40;;;1.27;;
51382;SDS011;37475;43.358;1.248;2022-09-09T13:08:56;6.40;;;1.45;;
51382;SDS011;37475;43.358;1.248;2022-09-09T13:14:13;8.88;;;1.20;;
51382;SDS011;37475;43.358;1.248;2022-09-09T13:16:57;4.07;;;0.90;;
51382;SDS011;37475;43.358;1.248;2022-09-09T13:19:25;2.92;;;0.95;;
51382;SDS011;37475;43.358;1.248;2022-09-09T13:22:20;5.05;;;1.08;;
51382;SDS011;37475;43.358;1.248;2022-09-09T13:27:39;5.55;;;1.10;;
51382;SDS011;37475;43.358;1.248;2022-09-09T13:35:31;7.22;;;1.00;;
51382;SDS011;37475;43.358;1.248;2022-09-09T13:37:58;5.28;;;1.00;;
51382;SDS011;37475;43.358;1.248;2022-09-09T13:40:32;6.80;;;0.98;;
51382;SDS011;37475;43.358;1.248;2022-09-09T13:42:59;5.70;;;1.08;;
51382;SDS011;37475;43.358;1.248;2022-09-09T13:45:25;4.50;;;1.15;;
51382;SDS011;37475;43.358;1.248;2022-09-09T13:47:52;4.18;;;1.17;;
51382;SDS011;37475;43.358;1.248;2022-09-09T13:50:29;4.35;;;1.00;;
51382;SDS011;37475;43.358;1.248;2022-09-09T13:52:57;3.58;;;0.90;;
51382;SDS011;37475;43.358;1.248;2022-09-09T13:55:24;6.78;;;1.20;;
51382;SDS011;37475;43.358;1.248;2022-09-09T13:57:55;6.85;;;1.33;;
51382;SDS011;37475;43.358;1.248;2022-09-09T14:00:31;7.55;;;1.20;;
51382;SDS011;37475;43.358;1.248;2022-09-09T14:02:59;4.72;;;1.10;;
51382;SDS011;37475;43.358;1.248;2022-09-09T14:05:27;3.33;;;1.10;;
51382;SDS011;37475;43.358;1.248;2022-09-09T14:07:55;5.65;;;1.00;;
51382;SDS011;37475;43.358;1.248;2022-09-09T14:10:22;6.30;;;1.13;;
51382;SDS011;37475;43.358;1.248;2022-09-09T14:12:48;5.85;;;1.30;;
51382;SDS011;37475;43.358;1.248;2022-09-09T14:15:14;4.18;;;0.93;;
51382;SDS011;37475;43.358;1.248;2022-09-09T14:17:40;3.40;;;0.90;;
51382;SDS011;37475;43.358;1.248;2022-09-09T14:20:06;6.05;;;1.33;;
51382;SDS011;37475;43.358;1.248;2022-09-09T14:22:34;6.22;;;1.02;;
51382;SDS011;37475;43.358;1.248;2022-09-09T14:25:02;4.32;;;1.10;;
51382;SDS011;37475;43.358;1.248;2022-09-09T14:27:29;5.85;;;1.02;;
51382;SDS011;37475;43.358;1.248;2022-09-09T14:29:55;3.25;;;0.88;;
51382;SDS011;37475;43.358;1.248;2022-09-09T14:32:22;4.72;;;0.90;;
51382;SDS011;37475;43.358;1.248;2022-09-09T14:34:48;4.80;;;0.98;;
51382;SDS011;37475;43.358;1.248;2022-09-09T14:37:17;3.92;;;0.80;;
51382;SDS011;37475;43.358;1.248;2022-09-09T14:39:43;3.78;;;1.00;;
51382;SDS011;37475;43.358;1.248;2022-09-09T14:42:10;5.13;;;1.02;;
51382;SDS011;37475;43.358;1.248;2022-09-09T14:44:36;5.75;;;1.40;;
51382;SDS011;37475;43.358;1.248;2022-09-09T14:47:06;6.18;;;1.08;;
51382;SDS011;37475;43.358;1.248;2022-09-09T14:49:35;7.50;;;0.98;;
51382;SDS011;37475;43.358;1.248;2022-09-09T14:52:02;5.68;;;1.15;;
51382;SDS011;37475;43.358;1.248;2022-09-09T14:54:29;4.60;;;0.90;;
51382;SDS011;37475;43.358;1.248;2022-09-09T14:56:57;8.50;;;1.00;;
51382;SDS011;37475;43.358;1.248;2022-09-09T14:59:23;4.95;;;0.90;;
51382;SDS011;37475;43.358;1.248;2022-09-09T15:01:49;3.10;;;0.80;;
51382;SDS011;37475;43.358;1.248;2022-09-09T15:04:15;3.45;;;0.68;;
51382;SDS011;37475;43.358;1.248;2022-09-09T15:06:42;4.10;;;1.10;;
51382;SDS011;37475;43.358;1.248;2022-09-09T15:09:09;5.10;;;1.02;;
51382;SDS011;37475;43.358;1.248;2022-09-09T15:11:36;4.50;;;1.08;;
51382;SDS011;37475;43.358;1.248;2022-09-09T15:14:03;3.70;;;0.85;;
51382;SDS011;37475;43.358;1.248;2022-09-09T15:16:30;4.13;;;0.90;;
51382;SDS011;37475;43.358;1.248;2022-09-09T15:19:00;2.03;;;0.75;;
51382;SDS011;37475;43.358;1.248;2022-09-09T15:21:28;3.95;;;1.10;;
51382;SDS011;37475;43.358;1.248;2022-09-09T15:23:57;6.72;;;1.30;;
51382;SDS011;37475;43.358;1.248;2022-09-09T15:26:24;2.95;;;0.80;;
51382;SDS011;37475;43.358;1.248;2022-09-09T15:28:51;3.75;;;1.00;;
51382;SDS011;37475;43.358;1.248;2022-09-09T15:33:47;5.50;;;1.00;;
51382;SDS011;37475;43.358;1.248;2022-09-09T15:36:15;5.45;;;0.98;;
51382;SDS011;37475;43.358;1.248;2022-09-09T15:38:44;8.40;;;1.00;;
51382;SDS011;37475;43.358;1.248;2022-09-09T15:41:11;4.65;;;0.90;;
51382;SDS011;37475;43.358;1.248;2022-09-09T15:43:37;6.18;;;1.00;;
51382;SDS011;37475;43.358;1.248;2022-09-09T15:48:54;4.65;;;1.10;;
51382;SDS011;37475;43.358;1.248;2022-09-09T15:51:23;6.82;;;1.02;;
51382;SDS011;37475;43.358;1.248;2022-09-09T15:53:56;5.55;;;1.10;;
51382;SDS011;37475;43.358;1.248;2022-09-09T15:56:27;4.15;;;0.82;;
51382;SDS011;37475;43.358;1.248;2022-09-09T15:58:58;7.05;;;1.30;;
51382;SDS011;37475;43.358;1.248;2022-09-09T16:01:26;4.43;;;1.00;;
51382;SDS011;37475;43.358;1.248;2022-09-09T16:03:52;6.90;;;0.98;;
51382;SDS011;37475;43.358;1.248;2022-09-09T16:06:22;6.88;;;1.00;;
51382;SDS011;37475;43.358;1.248;2022-09-09T16:08:50;4.32;;;0.80;;
51382;SDS011;37475;43.358;1.248;2022-09-09T16:11:21;6.68;;;1.08;;
51382;SDS011;37475;43.358;1.248;2022-09-09T16:13:51;7.45;;;1.20;;
51382;SDS011;37475;43.358;1.248;2022-09-09T16:16:20;3.83;;;0.80;;
51382;SDS011;37475;43.358;1.248;2022-09-09T16:18:50;5.18;;;0.80;;
51382;SDS011;37475;43.358;1.248;2022-09-09T16:21:22;3.28;;;0.90;;
51382;SDS011;37475;43.358;1.248;2022-09-09T16:23:54;3.83;;;0.90;;
51382;SDS011;37475;43.358;1.248;2022-09-09T16:26:22;4.18;;;1.00;;
51382;SDS011;37475;43.358;1.248;2022-09-09T16:28:49;3.90;;;0.82;;
51382;SDS011;37475;43.358;1.248;2022-09-09T16:31:18;7.07;;;1.10;;
51382;SDS011;37475;43.358;1.248;2022-09-09T16:33:47;4.82;;;0.90;;
51382;SDS011;37475;43.358;1.248;2022-09-09T16:36:17;4.72;;;1.00;;
51382;SDS011;37475;43.358;1.248;2022-09-09T16:38:52;7.47;;;1.00;;
51382;SDS011;37475;43.358;1.248;2022-09-09T16:41:24;4.47;;;0.82;;
51382;SDS011;37475;43.358;1.248;2022-09-09T16:43:54;3.88;;;0.80;;
51382;SDS011;37475;43.358;1.248;2022-09-09T16:46:22;3.25;;;0.82;;
51382;SDS011;37475;43.358;1.248;2022-09-09T16:48:49;4.30;;;0.98;;
51382;SDS011;37475;43.358;1.248;2022-09-09T16:51:20;4.47;;;1.00;;
51382;SDS011;37475;43.358;1.248;2022-09-09T16:53:55;4.10;;;0.90;;
51382;SDS011;37475;43.358;1.248;2022-09-09T16:56:24;3.58;;;0.80;;
51382;SDS011;37475;43.358;1.248;2022-09-09T16:58:57;4.63;;;0.82;;
51382;SDS011;37475;43.358;1.248;2022-09-09T17:01:26;3.33;;;0.90;;
51382;SDS011;37475;43.358;1.248;2022-09-09T17:03:56;4.28;;;0.80;;
51382;SDS011;37475;43.358;1.248;2022-09-09T17:06:28;3.17;;;1.00;;
51382;SDS011;37475;43.358;1.248;2022-09-09T17:08:59;2.53;;;0.80;;
51382;SDS011;37475;43.358;1.248;2022-09-09T17:11:28;4.20;;;1.00;;
51382;SDS011;37475;43.358;1.248;2022-09-09T17:13:55;5.25;;;1.00;;
51382;SDS011;37475;43.358;1.248;2022-09-09T17:16:24;4.70;;;1.20;;
51382;SDS011;37475;43.358;1.248;2022-09-09T17:18:55;3.90;;;1.00;;
51382;SDS011;37475;43.358;1.248;2022-09-09T17:21:24;4.50;;;1.00;;
51382;SDS011;37475;43.358;1.248;2022-09-09T17:23:52;5.00;;;1.00;;
51382;SDS011;37475;43.358;1.248;2022-09-09T17:26:20;3.53;;;0.80;;
51382;SDS011;37475;43.358;1.248;2022-09-09T17:28:49;18.35;;;1.70;;
51382;SDS011;37475;43.358;1.248;2022-09-09T17:31:16;2.75;;;0.98;;
51382;SDS011;37475;43.358;1.248;2022-09-09T17:33:44;6.78;;;1.00;;
51382;SDS011;37475;43.358;1.248;2022-09-09T17:36:14;6.53;;;1.25;;
51382;SDS011;37475;43.358;1.248;2022-09-09T17:38:47;4.65;;;1.20;;
51382;SDS011;37475;43.358;1.248;2022-09-09T17:41:18;4.32;;;1.00;;
51382;SDS011;37475;43.358;1.248;2022-09-09T17:43:50;4.07;;;1.40;;
51382;SDS011;37475;43.358;1.248;2022-09-09T17:46:17;4.55;;;1.40;;
51382;SDS011;37475;43.358;1.248;2022-09-09T17:48:46;2.80;;;0.95;;
51382;SDS011;37475;43.358;1.248;2022-09-09T17:51:15;4.90;;;1.20;;
51382;SDS011;37475;43.358;1.248;2022-09-09T17:53:46;3.40;;;1.00;;
51382;SDS011;37475;43.358;1.248;2022-09-09T17:56:15;4.55;;;0.90;;
51382;SDS011;37475;43.358;1.248;2022-09-09T17:58:45;4.57;;;0.95;;
51382;SDS011;37475;43.358;1.248;2022-09-09T18:01:12;4.32;;;1.10;;
51382;SDS011;37475;43.358;1.248;2022-09-09T18:03:42;4.28;;;1.38;;
51382;SDS011;37475;43.358;1.248;2022-09-09T18:06:12;6.28;;;1.08;;
51382;SDS011;37475;43.358;1.248;2022-09-09T18:08:46;7.72;;;1.15;;
51382;SDS011;37475;43.358;1.248;2022-09-09T18:11:17;5.63;;;1.10;;
51382;SDS011;37475;43.358;1.248;2022-09-09T18:13:52;7.03;;;1.45;;
51382;SDS011;37475;43.358;1.248;2022-09-09T18:16:29;6.05;;;1.10;;
51382;SDS011;37475;43.358;1.248;2022-09-09T18:19:00;5.03;;;1.33;;
51382;SDS011;37475;43.358;1.248;2022-09-09T18:21:28;7.30;;;1.30;;
51382;SDS011;37475;43.358;1.248;2022-09-09T18:23:59;6.80;;;1.40;;